Aérodrome :
LOGIN :

S'inscrire | Disclaimer

   EN    FR    IT 

 










Légende :    VFR   VFR Marginal   IFR   IFR Intensif   IFR Très Intensif
Visi : 
Plafond : 
>= 8 km
>= 3000ft
5 à 8 km
1000 à 3000 ft
1500m à 5 km
500 à 1000 ft
800 à 1500m
200 à 500 ft
< 800m
< 200 ft
Symboles :   Orages  Brouillard  Fortes neiges  Fortes précipitations  Vent > 20 kt
SIGMETs :   Divers  Orages  Givrage  Turbulence  Onde Orograph.  Cendres Volcan.







- Altitude de l'aérodrome : 82 ft
- Code IATA : AAR


EKAH - Aarhus Tirstrup

DERNIER METAR :
  • 270820Z AUTO 28017KT 9999NDV NCD 17/11 Q1022

METARs EXPIRÉS :
  • 270750Z AUTO 28019KT 9999NDV NCD 17/11 Q1021
  • 270720Z AUTO 28017G27KT 250V310 9999NDV SCT021/// 16/11 Q1021
  • 270650Z AUTO 29016KT 260V320 9999NDV FEW019/// 16/11 Q1021
  • 270620Z AUTO 29014G24KT 250V330 9999NDV SCT017/// 15/11 Q1021
  • 270550Z AUTO 29017KT 260V330 9999NDV BKN017/// 15/11 Q1021

TAF TAF EKAH
Valide du 27 à 06h jusqu'au 28 à 06h UTC


270509Z 2706/2806 32015KT 9999 BKN015
Pas de NOTAMs connus pour ce terrain.



MET'MAP, la Météo Aéronautique d'un coup d'oeil ! - Copyright ORBIFLY Décembre 2007 - Disclaimer

ORBIFLY MET'MAP TEAM :

Programmation & Développement : Alexandra Zaïnal
Conception & Développement : Baudouin d'Aumeries
Co-Programmation & Développement : Marc-Olivier Méhu
Soutien technique & logistique : Manuel Goepfert

Contact : metmap@orbifly.com




SOURCES & CREDITS :

   NOAA